sensor_id;sensor_type;location;lat;lon;timestamp;pressure;altitude;pressure_sealevel;temperature;humidity
65019;BME280;66069;51.164;-114.452;2024-02-21T00:01:08;87275.75;;;15.85;47.06
65019;BME280;66069;51.164;-114.452;2024-02-21T00:03:40;87275.81;;;15.81;46.96
65019;BME280;66069;51.164;-114.452;2024-02-21T00:06:06;87285.59;;;15.84;46.97
65019;BME280;66069;51.164;-114.452;2024-02-21T00:08:33;87286.38;;;15.81;46.83
65019;BME280;66069;51.164;-114.452;2024-02-21T00:10:59;87287.53;;;15.80;47.09
65019;BME280;66069;51.164;-114.452;2024-02-21T00:13:25;87269.28;;;15.66;46.89
65019;BME280;66069;51.164;-114.452;2024-02-21T00:15:51;87287.94;;;15.79;46.84
65019;BME280;66069;51.164;-114.452;2024-02-21T00:18:18;87285.03;;;15.73;46.96
65019;BME280;66069;51.164;-114.452;2024-02-21T00:20:44;87290.22;;;15.77;46.97
65019;BME280;66069;51.164;-114.452;2024-02-21T00:23:10;87288.41;;;15.74;46.91
65019;BME280;66069;51.164;-114.452;2024-02-21T00:25:36;87284.00;;;15.67;46.97
65019;BME280;66069;51.164;-114.452;2024-02-21T00:28:03;87289.56;;;15.73;46.99
65019;BME280;66069;51.164;-114.452;2024-02-21T00:30:31;87300.13;;;15.73;46.84
65019;BME280;66069;51.164;-114.452;2024-02-21T00:32:57;87279.03;;;15.69;47.03
65019;BME280;66069;51.164;-114.452;2024-02-21T00:35:25;87289.63;;;15.69;46.96
65019;BME280;66069;51.164;-114.452;2024-02-21T00:37:51;87275.31;;;15.67;46.98
65019;BME280;66069;51.164;-114.452;2024-02-21T00:40:18;87273.00;;;15.69;46.91
65019;BME280;66069;51.164;-114.452;2024-02-21T00:42:46;87279.13;;;15.66;47.00
65019;BME280;66069;51.164;-114.452;2024-02-21T00:45:14;87277.22;;;15.66;46.84
65019;BME280;66069;51.164;-114.452;2024-02-21T00:47:40;87277.31;;;15.59;46.82
65019;BME280;66069;51.164;-114.452;2024-02-21T00:50:07;87284.03;;;15.64;46.85
65019;BME280;66069;51.164;-114.452;2024-02-21T00:52:35;87295.75;;;15.63;46.64
65019;BME280;66069;51.164;-114.452;2024-02-21T00:55:01;87292.75;;;15.60;46.75
65019;BME280;66069;51.164;-114.452;2024-02-21T00:57:27;87298.03;;;15.60;46.64
65019;BME280;66069;51.164;-114.452;2024-02-21T00:59:53;87287.53;;;15.57;46.79
65019;BME280;66069;51.164;-114.452;2024-02-21T01:02:19;87289.75;;;15.58;46.65
65019;BME280;66069;51.164;-114.452;2024-02-21T01:04:46;87296.94;;;15.58;46.81
65019;BME280;66069;51.164;-114.452;2024-02-21T01:07:12;87289.75;;;15.58;46.69
65019;BME280;66069;51.164;-114.452;2024-02-21T01:09:39;87267.41;;;15.40;46.53
65019;BME280;66069;51.164;-114.452;2024-02-21T01:12:05;87273.41;;;15.44;46.65
65019;BME280;66069;51.164;-114.452;2024-02-21T01:14:31;87281.16;;;15.54;46.64
65019;BME280;66069;51.164;-114.452;2024-02-21T01:16:58;87259.50;;;15.40;46.83
65019;BME280;66069;51.164;-114.452;2024-02-21T01:19:24;87281.94;;;15.51;46.78
65019;BME280;66069;51.164;-114.452;2024-02-21T01:21:50;87279.31;;;15.51;46.73
65019;BME280;66069;51.164;-114.452;2024-02-21T01:24:16;87298.16;;;15.53;46.73
65019;BME280;66069;51.164;-114.452;2024-02-21T01:26:42;87283.97;;;15.44;46.83
65019;BME280;66069;51.164;-114.452;2024-02-21T01:29:09;87292.59;;;15.48;46.85
65019;BME280;66069;51.164;-114.452;2024-02-21T01:31:35;87275.06;;;15.34;46.84
65019;BME280;66069;51.164;-114.452;2024-02-21T01:34:01;87301.66;;;15.47;46.79
65019;BME280;66069;51.164;-114.452;2024-02-21T01:36:27;87299.78;;;15.47;46.86
65019;BME280;66069;51.164;-114.452;2024-02-21T01:38:53;87304.03;;;15.41;46.99
65019;BME280;66069;51.164;-114.452;2024-02-21T01:41:20;87298.00;;;15.41;46.75
65019;BME280;66069;51.164;-114.452;2024-02-21T01:43:46;87301.00;;;15.39;46.80
65019;BME280;66069;51.164;-114.452;2024-02-21T01:46:12;87309.31;;;15.41;46.88
65019;BME280;66069;51.164;-114.452;2024-02-21T01:48:38;87301.00;;;15.39;46.94
65019;BME280;66069;51.164;-114.452;2024-02-21T01:51:05;87305.91;;;15.41;46.91
65019;BME280;66069;51.164;-114.452;2024-02-21T01:53:37;87315.72;;;15.40;46.83
65019;BME280;66069;51.164;-114.452;2024-02-21T01:56:05;87311.25;;;15.37;46.78
65019;BME280;66069;51.164;-114.452;2024-02-21T01:58:33;87311.66;;;15.35;46.70
65019;BME280;66069;51.164;-114.452;2024-02-21T02:01:02;87312.72;;;15.38;46.92
65019;BME280;66069;51.164;-114.452;2024-02-21T02:03:29;87302.63;;;15.33;46.83
65019;BME280;66069;51.164;-114.452;2024-02-21T02:05:55;87322.56;;;15.38;46.82
65019;BME280;66069;51.164;-114.452;2024-02-21T02:08:22;87323.72;;;15.37;46.73
65019;BME280;66069;51.164;-114.452;2024-02-21T02:10:49;87324.13;;;15.35;46.75
65019;BME280;66069;51.164;-114.452;2024-02-21T02:13:15;87309.75;;;15.36;46.87
65019;BME280;66069;51.164;-114.452;2024-02-21T02:15:45;87318.09;;;15.34;46.79
65019;BME280;66069;51.164;-114.452;2024-02-21T02:18:12;87324.50;;;15.33;46.72
65019;BME280;66069;51.164;-114.452;2024-02-21T02:20:39;87321.84;;;15.33;46.86
65019;BME280;66069;51.164;-114.452;2024-02-21T02:25:38;87318.53;;;15.29;46.74
65019;BME280;66069;51.164;-114.452;2024-02-21T02:28:06;87312.09;;;15.30;46.62
65019;BME280;66069;51.164;-114.452;2024-02-21T02:30:34;87272.06;;;15.08;46.57
65019;BME280;66069;51.164;-114.452;2024-02-21T02:33:05;87302.69;;;15.29;46.89
65019;BME280;66069;51.164;-114.452;2024-02-21T02:35:32;87303.84;;;15.28;46.76
65019;BME280;66069;51.164;-114.452;2024-02-21T02:37:58;87299.69;;;15.27;46.76
65019;BME280;66069;51.164;-114.452;2024-02-21T02:40:24;87300.16;;;15.22;46.66
65019;BME280;66069;51.164;-114.452;2024-02-21T02:42:51;87291.25;;;15.13;46.72
65019;BME280;66069;51.164;-114.452;2024-02-21T02:45:21;87296.78;;;15.22;46.83
65019;BME280;66069;51.164;-114.452;2024-02-21T02:47:57;87308.09;;;15.22;46.84
65019;BME280;66069;51.164;-114.452;2024-02-21T02:50:24;87312.97;;;15.24;46.80
65019;BME280;66069;51.164;-114.452;2024-02-21T02:52:51;87308.09;;;15.22;46.57
65019;BME280;66069;51.164;-114.452;2024-02-21T02:55:17;87288.72;;;15.05;46.67
65019;BME280;66069;51.164;-114.452;2024-02-21T02:57:43;87311.84;;;15.21;46.75
65019;BME280;66069;51.164;-114.452;2024-02-21T03:00:14;87312.25;;;15.20;46.76
65019;BME280;66069;51.164;-114.452;2024-02-21T03:02:43;87312.25;;;15.20;46.61
65019;BME280;66069;51.164;-114.452;2024-02-21T03:05:16;87313.00;;;15.20;46.75
65019;BME280;66069;51.164;-114.452;2024-02-21T03:07:44;87301.81;;;15.13;46.68
65019;BME280;66069;51.164;-114.452;2024-02-21T03:10:11;87311.91;;;15.18;46.59
65019;BME280;66069;51.164;-114.452;2024-02-21T03:12:37;87311.16;;;15.17;46.42
65019;BME280;66069;51.164;-114.452;2024-02-21T03:15:04;87308.56;;;15.14;46.33
65019;BME280;66069;51.164;-114.452;2024-02-21T03:17:32;87312.31;;;15.16;46.52
65019;BME280;66069;51.164;-114.452;2024-02-21T03:20:05;87300.34;;;15.08;46.29
65019;BME280;66069;51.164;-114.452;2024-02-21T03:22:34;87312.69;;;15.15;46.54
65019;BME280;66069;51.164;-114.452;2024-02-21T03:25:00;87318.38;;;15.13;46.29
65019;BME280;66069;51.164;-114.452;2024-02-21T03:27:26;87306.34;;;15.12;46.53
65019;BME280;66069;51.164;-114.452;2024-02-21T03:29:53;87317.97;;;15.15;46.32
65019;BME280;66069;51.164;-114.452;2024-02-21T03:32:19;87298.88;;;15.07;46.84
65019;BME280;66069;51.164;-114.452;2024-02-21T03:34:45;87310.06;;;15.15;46.80
65019;BME280;66069;51.164;-114.452;2024-02-21T03:37:11;87320.63;;;15.15;47.37
65019;BME280;66069;51.164;-114.452;2024-02-21T03:39:40;87301.50;;;15.07;47.78
65019;BME280;66069;51.164;-114.452;2024-02-21T03:42:06;87314.22;;;15.16;47.84
65019;BME280;66069;51.164;-114.452;2024-02-21T03:44:33;87315.75;;;15.13;48.29
65019;BME280;66069;51.164;-114.452;2024-02-21T03:46:59;87312.78;;;15.11;48.79
65019;BME280;66069;51.164;-114.452;2024-02-21T03:49:26;87320.69;;;15.11;48.61
65019;BME280;66069;51.164;-114.452;2024-02-21T03:51:52;87324.72;;;15.19;48.68
65019;BME280;66069;51.164;-114.452;2024-02-21T03:54:19;87328.09;;;15.20;48.63
65019;BME280;66069;51.164;-114.452;2024-02-21T03:56:45;87307.53;;;15.07;49.05
65019;BME280;66069;51.164;-114.452;2024-02-21T03:59:13;87325.06;;;15.21;49.52
65019;BME280;66069;51.164;-114.452;2024-02-21T04:01:39;87347.63;;;15.26;49.21
65019;BME280;66069;51.164;-114.452;2024-02-21T04:04:06;87343.09;;;15.26;49.26
65019;BME280;66069;51.164;-114.452;2024-02-21T04:06:32;87337.47;;;15.24;49.06
65019;BME280;66069;51.164;-114.452;2024-02-21T04:08:58;87344.59;;;15.27;49.32
65019;BME280;66069;51.164;-114.452;2024-02-21T04:11:24;87341.19;;;15.27;49.02
65019;BME280;66069;51.164;-114.452;2024-02-21T04:13:51;87341.56;;;15.29;48.79
65019;BME280;66069;51.164;-114.452;2024-02-21T04:16:17;87331.00;;;15.29;48.87
65019;BME280;66069;51.164;-114.452;2024-02-21T04:18:44;87332.16;;;15.28;48.85
65019;BME280;66069;51.164;-114.452;2024-02-21T04:21:11;87310.06;;;15.15;48.67
65019;BME280;66069;51.164;-114.452;2024-02-21T04:23:40;87335.53;;;15.28;48.63
65019;BME280;66069;51.164;-114.452;2024-02-21T04:26:06;87328.81;;;15.24;48.70
65019;BME280;66069;51.164;-114.452;2024-02-21T04:28:32;87340.81;;;15.28;48.66
65019;BME280;66069;51.164;-114.452;2024-02-21T04:30:58;87334.09;;;15.24;48.41
65019;BME280;66069;51.164;-114.452;2024-02-21T04:33:24;87337.06;;;15.26;48.62
65019;BME280;66069;51.164;-114.452;2024-02-21T04:35:51;87325.41;;;15.23;48.44
65019;BME280;66069;51.164;-114.452;2024-02-21T04:38:20;87336.72;;;15.24;48.51
65019;BME280;66069;51.164;-114.452;2024-02-21T04:40:47;87317.31;;;15.11;48.42
65019;BME280;66069;51.164;-114.452;2024-02-21T04:43:13;87335.97;;;15.23;48.45
65019;BME280;66069;51.164;-114.452;2024-02-21T04:45:39;87341.59;;;15.25;48.50
65019;BME280;66069;51.164;-114.452;2024-02-21T04:48:05;87340.44;;;15.26;48.27
65019;BME280;66069;51.164;-114.452;2024-02-21T04:50:32;87342.75;;;15.24;48.42
65019;BME280;66069;51.164;-114.452;2024-02-21T04:52:58;87342.00;;;15.24;48.17
65019;BME280;66069;51.164;-114.452;2024-02-21T04:55:24;87340.16;;;15.21;48.34
65019;BME280;66069;51.164;-114.452;2024-02-21T04:57:50;87341.66;;;15.22;48.17
65019;BME280;66069;51.164;-114.452;2024-02-21T05:00:17;87337.13;;;15.22;48.31
65019;BME280;66069;51.164;-114.452;2024-02-21T05:02:43;87339.78;;;15.22;48.15
65019;BME280;66069;51.164;-114.452;2024-02-21T05:05:09;87337.13;;;15.22;48.36
65019;BME280;66069;51.164;-114.452;2024-02-21T05:07:35;87347.72;;;15.19;48.37
65019;BME280;66069;51.164;-114.452;2024-02-21T05:10:01;87348.81;;;15.21;48.28
65019;BME280;66069;51.164;-114.452;2024-02-21T05:12:28;87321.53;;;15.04;48.28
65019;BME280;66069;51.164;-114.452;2024-02-21T05:14:55;87350.72;;;15.21;48.17
65019;BME280;66069;51.164;-114.452;2024-02-21T05:17:22;87335.72;;;15.14;48.06
65019;BME280;66069;51.164;-114.452;2024-02-21T05:19:48;87326.06;;;15.04;48.01
65019;BME280;66069;51.164;-114.452;2024-02-21T05:22:14;87347.78;;;15.15;48.22
65019;BME280;66069;51.164;-114.452;2024-02-21T05:24:40;87358.28;;;15.19;48.12
65019;BME280;66069;51.164;-114.452;2024-02-21T05:27:07;87350.41;;;15.15;47.87
65019;BME280;66069;51.164;-114.452;2024-02-21T05:29:33;87367.38;;;15.18;48.06
65019;BME280;66069;51.164;-114.452;2024-02-21T05:32:00;87368.53;;;15.17;47.98
65019;BME280;66069;51.164;-114.452;2024-02-21T05:34:26;87367.78;;;15.16;48.00
65019;BME280;66069;51.164;-114.452;2024-02-21T05:36:53;87369.66;;;15.16;48.09
65019;BME280;66069;51.164;-114.452;2024-02-21T05:39:19;87367.03;;;15.16;47.99
65019;BME280;66069;51.164;-114.452;2024-02-21T05:41:48;87354.66;;;15.09;47.95
65019;BME280;66069;51.164;-114.452;2024-02-21T05:44:15;87368.16;;;15.15;47.99
65019;BME280;66069;51.164;-114.452;2024-02-21T05:46:42;87367.47;;;15.11;48.02
65019;BME280;66069;51.164;-114.452;2024-02-21T05:49:08;87375.72;;;15.13;47.84
65019;BME280;66069;51.164;-114.452;2024-02-21T05:51:35;87370.44;;;15.13;47.95
65019;BME280;66069;51.164;-114.452;2024-02-21T05:54:01;87363.34;;;15.10;47.96
65019;BME280;66069;51.164;-114.452;2024-02-21T05:56:27;87373.53;;;15.07;47.88
65019;BME280;66069;51.164;-114.452;2024-02-21T05:58:54;87365.63;;;15.07;47.90
65019;BME280;66069;51.164;-114.452;2024-02-21T06:01:20;87366.75;;;15.06;47.70
65019;BME280;66069;51.164;-114.452;2024-02-21T06:03:49;87373.13;;;15.09;47.95
65019;BME280;66069;51.164;-114.452;2024-02-21T06:06:16;87367.09;;;15.08;47.75
65019;BME280;66069;51.164;-114.452;2024-02-21T06:08:42;87369.06;;;15.04;47.91
65019;BME280;66069;51.164;-114.452;2024-02-21T06:11:08;87380.31;;;15.08;47.67
65019;BME280;66069;51.164;-114.452;2024-02-21T06:13:38;87379.56;;;15.08;47.67
65019;BME280;66069;51.164;-114.452;2024-02-21T06:16:07;87375.50;;;15.03;47.73
65019;BME280;66069;51.164;-114.452;2024-02-21T06:18:35;87376.97;;;15.04;47.67
65019;BME280;66069;51.164;-114.452;2024-02-21T06:21:03;87384.50;;;15.06;47.71
65019;BME280;66069;51.164;-114.452;2024-02-21T06:23:30;87381.56;;;15.00;48.01
65019;BME280;66069;51.164;-114.452;2024-02-21T06:25:56;87385.66;;;15.05;47.61
65019;BME280;66069;51.164;-114.452;2024-02-21T06:28:22;87385.28;;;15.03;47.72
65019;BME280;66069;51.164;-114.452;2024-02-21T06:30:49;87385.28;;;15.03;47.73
65019;BME280;66069;51.164;-114.452;2024-02-21T06:33:15;87378.19;;;14.96;47.84
65019;BME280;66069;51.164;-114.452;2024-02-21T06:35:41;87380.50;;;14.94;47.71
65019;BME280;66069;51.164;-114.452;2024-02-21T06:38:08;87392.44;;;15.02;47.87
65019;BME280;66069;51.164;-114.452;2024-02-21T06:40:34;87392.84;;;15.01;47.78
65019;BME280;66069;51.164;-114.452;2024-02-21T06:43:05;87394.00;;;15.00;47.78
65019;BME280;66069;51.164;-114.452;2024-02-21T06:45:31;87399.28;;;15.00;47.71
65019;BME280;66069;51.164;-114.452;2024-02-21T06:47:57;87395.91;;;14.99;47.38
65019;BME280;66069;51.164;-114.452;2024-02-21T06:50:24;87390.63;;;14.99;47.74
65019;BME280;66069;51.164;-114.452;2024-02-21T06:52:50;87381.31;;;14.91;47.53
65019;BME280;66069;51.164;-114.452;2024-02-21T06:55:16;87403.81;;;14.99;47.67
65019;BME280;66069;51.164;-114.452;2024-02-21T06:57:42;87396.69;;;14.96;47.42
65019;BME280;66069;51.164;-114.452;2024-02-21T07:00:09;87392.91;;;14.97;47.60
65019;BME280;66069;51.164;-114.452;2024-02-21T07:02:35;87398.53;;;14.99;47.48
65019;BME280;66069;51.164;-114.452;2024-02-21T07:05:02;87388.06;;;14.92;47.59
65019;BME280;66069;51.164;-114.452;2024-02-21T07:07:28;87394.44;;;14.95;47.76
65019;BME280;66069;51.164;-114.452;2024-02-21T07:09:55;87391.06;;;14.94;47.43
65019;BME280;66069;51.164;-114.452;2024-02-21T07:12:21;87394.88;;;14.90;47.62
65019;BME280;66069;51.164;-114.452;2024-02-21T07:14:47;87402.75;;;14.93;47.45
65019;BME280;66069;51.164;-114.452;2024-02-21T07:17:14;87399.78;;;14.91;47.32
65019;BME280;66069;51.164;-114.452;2024-02-21T07:19:40;87405.06;;;14.91;47.48
65019;BME280;66069;51.164;-114.452;2024-02-21T07:22:06;87398.31;;;14.87;47.46
65019;BME280;66069;51.164;-114.452;2024-02-21T07:24:32;87407.31;;;14.89;47.75
65019;BME280;66069;51.164;-114.452;2024-02-21T07:26:58;87383.75;;;14.75;47.59
65019;BME280;66069;51.164;-114.452;2024-02-21T07:29:30;87415.25;;;14.89;47.62
65019;BME280;66069;51.164;-114.452;2024-02-21T07:31:56;87410.78;;;14.86;47.62
65019;BME280;66069;51.164;-114.452;2024-02-21T07:34:23;87405.09;;;14.88;47.62
65019;BME280;66069;51.164;-114.452;2024-02-21T07:36:49;87419.78;;;14.89;47.48
65019;BME280;66069;51.164;-114.452;2024-02-21T07:39:16;87418.69;;;14.86;47.22
65019;BME280;66069;51.164;-114.452;2024-02-21T07:41:42;87402.25;;;14.71;47.34
65019;BME280;66069;51.164;-114.452;2024-02-21T07:44:10;87417.97;;;14.82;47.63
65019;BME280;66069;51.164;-114.452;2024-02-21T07:46:37;87430.75;;;14.87;47.58
65019;BME280;66069;51.164;-114.452;2024-02-21T07:49:03;87429.25;;;14.86;47.31
65019;BME280;66069;51.164;-114.452;2024-02-21T07:51:29;87427.38;;;14.83;47.32
65019;BME280;66069;51.164;-114.452;2024-02-21T07:53:55;87430.41;;;14.85;47.35
65019;BME280;66069;51.164;-114.452;2024-02-21T07:56:22;87434.16;;;14.84;47.64
65019;BME280;66069;51.164;-114.452;2024-02-21T07:58:48;87428.59;;;14.78;47.28
65019;BME280;66069;51.164;-114.452;2024-02-21T08:01:20;87414.03;;;14.67;47.42
65019;BME280;66069;51.164;-114.452;2024-02-21T08:03:47;87437.59;;;14.81;47.22
65019;BME280;66069;51.164;-114.452;2024-02-21T08:06:13;87442.13;;;14.80;47.37
65019;BME280;66069;51.164;-114.452;2024-02-21T08:08:40;87442.13;;;14.80;47.31
65019;BME280;66069;51.164;-114.452;2024-02-21T08:11:06;87419.66;;;14.65;47.50
65019;BME280;66069;51.164;-114.452;2024-02-21T08:13:33;87444.44;;;14.78;47.46
65019;BME280;66069;51.164;-114.452;2024-02-21T08:15:59;87442.56;;;14.75;47.32
65019;BME280;66069;51.164;-114.452;2024-02-21T08:18:25;87448.19;;;14.77;47.57
65019;BME280;66069;51.164;-114.452;2024-02-21T08:20:51;87450.13;;;14.73;47.41
65019;BME280;66069;51.164;-114.452;2024-02-21T08:23:19;87447.88;;;14.72;47.43
65019;BME280;66069;51.164;-114.452;2024-02-21T08:25:45;87451.63;;;14.74;47.51
65019;BME280;66069;51.164;-114.452;2024-02-21T08:28:11;87458.78;;;14.74;47.58
65019;BME280;66069;51.164;-114.452;2024-02-21T08:30:38;87467.47;;;14.74;47.56
65019;BME280;66069;51.164;-114.452;2024-02-21T08:33:05;87469.75;;;14.72;47.33
65019;BME280;66069;51.164;-114.452;2024-02-21T08:35:32;87460.31;;;14.71;47.23
65019;BME280;66069;51.164;-114.452;2024-02-21T08:37:58;87462.19;;;14.71;47.11
65019;BME280;66069;51.164;-114.452;2024-02-21T08:40:25;87462.19;;;14.71;47.45
65019;BME280;66069;51.164;-114.452;2024-02-21T08:42:51;87467.09;;;14.72;47.53
65019;BME280;66069;51.164;-114.452;2024-02-21T08:45:17;87465.59;;;14.71;47.30
65019;BME280;66069;51.164;-114.452;2024-02-21T08:47:43;87460.03;;;14.66;47.27
65019;BME280;66069;51.164;-114.452;2024-02-21T08:50:11;87468.69;;;14.66;47.42
65019;BME280;66069;51.164;-114.452;2024-02-21T08:52:37;87451.09;;;14.52;47.06
65019;BME280;66069;51.164;-114.452;2024-02-21T08:55:03;87481.81;;;14.70;47.34
65019;BME280;66069;51.164;-114.452;2024-02-21T08:57:30;87456.75;;;14.54;47.52
65019;BME280;66069;51.164;-114.452;2024-02-21T09:00:05;87487.50;;;14.68;47.15
65019;BME280;66069;51.164;-114.452;2024-02-21T09:02:37;87474.34;;;14.65;47.42
65019;BME280;66069;51.164;-114.452;2024-02-21T09:05:04;87488.66;;;14.67;47.13
65019;BME280;66069;51.164;-114.452;2024-02-21T09:07:31;87480.00;;;14.63;47.11
65019;BME280;66069;51.164;-114.452;2024-02-21T09:09:57;87490.53;;;14.67;47.40
65019;BME280;66069;51.164;-114.452;2024-02-21T09:12:23;87490.53;;;14.67;47.17
65019;BME280;66069;51.164;-114.452;2024-02-21T09:14:49;87491.69;;;14.66;47.28
65019;BME280;66069;51.164;-114.452;2024-02-21T09:17:16;87489.84;;;14.59;47.08
65019;BME280;66069;51.164;-114.452;2024-02-21T09:19:51;87491.31;;;14.64;47.23
65019;BME280;66069;51.164;-114.452;2024-02-21T09:22:17;87493.25;;;14.60;47.12
65019;BME280;66069;51.164;-114.452;2024-02-21T09:24:43;87501.88;;;14.64;47.27
65019;BME280;66069;51.164;-114.452;2024-02-21T09:27:10;87493.25;;;14.60;47.25
65019;BME280;66069;51.164;-114.452;2024-02-21T09:29:37;87507.19;;;14.60;47.19
65019;BME280;66069;51.164;-114.452;2024-02-21T09:32:05;87486.94;;;14.46;46.93
65019;BME280;66069;51.164;-114.452;2024-02-21T09:34:32;87509.50;;;14.54;47.35
65019;BME280;66069;51.164;-114.452;2024-02-21T09:36:58;87499.72;;;14.51;47.02
65019;BME280;66069;51.164;-114.452;2024-02-21T09:39:24;87514.38;;;14.56;47.08
65019;BME280;66069;51.164;-114.452;2024-02-21T09:41:53;87520.75;;;14.59;47.32
65019;BME280;66069;51.164;-114.452;2024-02-21T09:44:24;87507.22;;;14.53;47.32
65019;BME280;66069;51.164;-114.452;2024-02-21T09:46:57;87519.66;;;14.56;47.24
65019;BME280;66069;51.164;-114.452;2024-02-21T09:49:35;87520.81;;;14.55;46.95
65019;BME280;66069;51.164;-114.452;2024-02-21T09:52:07;87517.03;;;14.52;47.17
65019;BME280;66069;51.164;-114.452;2024-02-21T09:54:36;87511.41;;;14.50;47.44
65019;BME280;66069;51.164;-114.452;2024-02-21T09:57:03;87512.94;;;14.48;46.87
65019;BME280;66069;51.164;-114.452;2024-02-21T09:59:32;87514.03;;;14.54;47.19
65019;BME280;66069;51.164;-114.452;2024-02-21T10:02:00;87506.53;;;14.45;47.20
65019;BME280;66069;51.164;-114.452;2024-02-21T10:04:27;87514.78;;;14.51;47.04
65019;BME280;66069;51.164;-114.452;2024-02-21T10:06:54;87521.97;;;14.50;47.11
65019;BME280;66069;51.164;-114.452;2024-02-21T10:09:24;87500.97;;;14.36;47.37
65019;BME280;66069;51.164;-114.452;2024-02-21T10:11:54;87531.38;;;14.51;47.24
65019;BME280;66069;51.164;-114.452;2024-02-21T10:14:20;87514.06;;;14.47;46.97
65019;BME280;66069;51.164;-114.452;2024-02-21T10:16:57;87517.09;;;14.49;46.88
65019;BME280;66069;51.164;-114.452;2024-02-21T10:19:27;87521.63;;;14.48;47.26
65019;BME280;66069;51.164;-114.452;2024-02-21T10:22:08;87532.91;;;14.49;47.13
65019;BME280;66069;51.164;-114.452;2024-02-21T10:24:34;87520.84;;;14.44;47.02
65019;BME280;66069;51.164;-114.452;2024-02-21T10:27:07;87529.16;;;14.46;46.94
65019;BME280;66069;51.164;-114.452;2024-02-21T10:29:38;87532.53;;;14.47;46.98
65019;BME280;66069;51.164;-114.452;2024-02-21T10:34:34;87535.53;;;14.45;46.93
65019;BME280;66069;51.164;-114.452;2024-02-21T10:37:05;87541.22;;;14.44;47.16
65019;BME280;66069;51.164;-114.452;2024-02-21T10:39:33;87535.94;;;14.44;47.11
65019;BME280;66069;51.164;-114.452;2024-02-21T10:42:03;87537.84;;;14.40;47.01
65019;BME280;66069;51.164;-114.452;2024-02-21T10:44:33;87541.59;;;14.42;46.92
65019;BME280;66069;51.164;-114.452;2024-02-21T10:47:00;87535.22;;;14.40;47.40
65019;BME280;66069;51.164;-114.452;2024-02-21T10:49:30;87542.75;;;14.41;47.05
65019;BME280;66069;51.164;-114.452;2024-02-21T10:54:45;87540.47;;;14.40;47.13
65019;BME280;66069;51.164;-114.452;2024-02-21T10:57:13;87552.94;;;14.39;46.99
65019;BME280;66069;51.164;-114.452;2024-02-21T10:59:40;87542.41;;;14.36;46.91
65019;BME280;66069;51.164;-114.452;2024-02-21T11:02:07;87538.38;;;14.24;47.22
65019;BME280;66069;51.164;-114.452;2024-02-21T11:04:34;87532.72;;;14.22;46.94
65019;BME280;66069;51.164;-114.452;2024-02-21T11:07:05;87550.34;;;14.36;46.90
65019;BME280;66069;51.164;-114.452;2024-02-21T11:09:32;87561.63;;;14.36;47.11
65019;BME280;66069;51.164;-114.452;2024-02-21T11:12:03;87560.88;;;14.36;46.94
65019;BME280;66069;51.164;-114.452;2024-02-21T11:14:30;87560.13;;;14.35;47.12
65019;BME280;66069;51.164;-114.452;2024-02-21T11:17:18;87563.88;;;14.34;47.09
65019;BME280;66069;51.164;-114.452;2024-02-21T11:19:45;87558.59;;;14.34;47.06
65019;BME280;66069;51.164;-114.452;2024-02-21T11:22:18;87558.66;;;14.31;47.01
65019;BME280;66069;51.164;-114.452;2024-02-21T11:24:45;87561.28;;;14.31;47.15
65019;BME280;66069;51.164;-114.452;2024-02-21T11:27:18;87565.06;;;14.30;47.08
65019;BME280;66069;51.164;-114.452;2024-02-21T11:29:47;87562.78;;;14.32;47.20
65019;BME280;66069;51.164;-114.452;2024-02-21T11:32:20;87544.78;;;14.23;46.96
65019;BME280;66069;51.164;-114.452;2024-02-21T11:34:59;87563.56;;;14.28;47.25
65019;BME280;66069;51.164;-114.452;2024-02-21T11:37:27;87559.06;;;14.29;46.99
65019;BME280;66069;51.164;-114.452;2024-02-21T11:39:55;87556.41;;;14.29;47.01
65019;BME280;66069;51.164;-114.452;2024-02-21T11:42:21;87558.31;;;14.25;46.96
65019;BME280;66069;51.164;-114.452;2024-02-21T11:44:48;87555.28;;;14.26;46.85
65019;BME280;66069;51.164;-114.452;2024-02-21T11:47:15;87532.47;;;14.06;47.16
65019;BME280;66069;51.164;-114.452;2024-02-21T11:49:47;87565.09;;;14.26;46.81
65019;BME280;66069;51.164;-114.452;2024-02-21T11:52:22;87569.97;;;14.27;46.91
65019;BME280;66069;51.164;-114.452;2024-02-21T11:54:51;87560.59;;;14.23;46.80
65019;BME280;66069;51.164;-114.452;2024-02-21T11:57:23;87565.91;;;14.19;47.18
65019;BME280;66069;51.164;-114.452;2024-02-21T11:59:51;87573.75;;;14.26;46.99
65019;BME280;66069;51.164;-114.452;2024-02-21T12:02:20;87581.66;;;14.26;47.12
65019;BME280;66069;51.164;-114.452;2024-02-21T12:04:46;87565.84;;;14.26;46.97
65019;BME280;66069;51.164;-114.452;2024-02-21T12:07:14;87558.72;;;14.20;47.03
65019;BME280;66069;51.164;-114.452;2024-02-21T12:09:41;87555.75;;;14.14;47.41
65019;BME280;66069;51.164;-114.452;2024-02-21T12:12:08;87571.09;;;14.26;47.61
65019;BME280;66069;51.164;-114.452;2024-02-21T12:14:35;87547.09;;;14.14;47.68
65019;BME280;66069;51.164;-114.452;2024-02-21T12:17:02;87561.69;;;14.25;47.99
65019;BME280;66069;51.164;-114.452;2024-02-21T12:19:33;87573.69;;;14.34;47.77
65019;BME280;66069;51.164;-114.452;2024-02-21T12:22:00;87577.44;;;14.36;48.61
65019;BME280;66069;51.164;-114.452;2024-02-21T12:24:28;87580.44;;;14.38;48.95
65019;BME280;66069;51.164;-114.452;2024-02-21T12:26:56;87570.31;;;14.33;49.13
65019;BME280;66069;51.164;-114.452;2024-02-21T12:29:25;87573.63;;;14.48;49.76
65019;BME280;66069;51.164;-114.452;2024-02-21T12:31:52;87583.38;;;14.54;49.97
65019;BME280;66069;51.164;-114.452;2024-02-21T12:34:20;87588.59;;;14.58;50.20
65019;BME280;66069;51.164;-114.452;2024-02-21T12:36:47;87574.25;;;14.59;49.99
65019;BME280;66069;51.164;-114.452;2024-02-21T12:39:14;87584.00;;;14.69;50.42